Aérodrome :
LOGIN :

S'inscrire | Disclaimer

   EN    FR    IT 

 










Légende :    VFR   VFR Marginal   IFR   IFR Intensif   IFR Très Intensif
Visi : 
Plafond : 
>= 8 km
>= 3000ft
5 à 8 km
1000 à 3000 ft
1500m à 5 km
500 à 1000 ft
800 à 1500m
200 à 500 ft
< 800m
< 200 ft
Symboles :   Orages  Brouillard  Fortes neiges  Fortes précipitations  Vent > 20 kt
SIGMETs :   Divers  Orages  Givrage  Turbulence  Onde Orograph.  Cendres Volcan.






- Altitude de l'aérodrome : 90 ft
- Code IATA : NTE


LFRS - Nantes

DERNIER METAR :
  • 270230Z AUTO 21014KT 180V240 5000 -RA BR BKN006 OVC010 10/10 Q1012 TEMPO 22015G25KT 2000 RA OVC003

METARs EXPIRÉS :
  • 270200Z AUTO 20012KT 9999 OVC010 10/10 Q1012 TEMPO 22015G25KT 2000 RA OVC003
  • 270130Z AUTO 20012KT 9999 -RA OVC010/// ///TCU 10/10 Q1012
  • 270100Z AUTO 21012KT 7000 -RA OVC010/// ///CB 10/10 Q1013 TEMPO 2000 RA OVC003
  • 270030Z AUTO 22014KT 190V250 9999 -RA OVC011/// ///TCU 10/10 Q1013 TEMPO 2000 RA OVC003
  • 270000Z AUTO 22013G24KT 9999 -RADZ BKN010 OVC015 10/10 Q1013 TEMPO 2000 RA OVC003

TAF TAF LFRS
Valide du 27 à 00h jusqu'au 28 à 06h UTC


262300Z 2700/2806 21012KT 8000 -RA BKN012
TEMPO 2700/2716 2000 RA OVC003
TEMPO 2703/2718 22015G25KT
BECMG 2716/2718 NSW BKN020
TEMPO 2718/2806 25020G30KT 4000 SHRA BKN020CB
TEMPO 2721/2806 26025G45KT
ATIS : +33 2 40 05 12 74



MET'MAP, la Météo Aéronautique d'un coup d'oeil ! - Copyright ORBIFLY Décembre 2007 - Disclaimer

ORBIFLY MET'MAP TEAM :

Programmation & Développement : Alexandra Zaïnal
Sur une idée originale de : Baudouin d'Aumeries
Assistance à la programmation : Marc-Olivier Méhu
Soutien technique & logistique : Manuel Goepfert

Contact : metmap@orbifly.com




SOURCES & CREDITS :

   NOAA